sensor_id;sensor_type;location;lat;lon;timestamp;P1;durP1;ratioP1;P2;durP2;ratioP2
15425;SDS011;7812;50.072;7.036;2022-12-18T00:01:03;13.13;;;7.77;;
15425;SDS011;7812;50.072;7.036;2022-12-18T00:03:33;8.53;;;5.70;;
15425;SDS011;7812;50.072;7.036;2022-12-18T00:05:58;11.00;;;7.00;;
15425;SDS011;7812;50.072;7.036;2022-12-18T00:08:24;9.53;;;7.10;;
15425;SDS011;7812;50.072;7.036;2022-12-18T00:10:50;9.53;;;6.07;;
15425;SDS011;7812;50.072;7.036;2022-12-18T00:13:16;9.60;;;7.10;;
15425;SDS011;7812;50.072;7.036;2022-12-18T00:15:41;11.50;;;7.10;;
15425;SDS011;7812;50.072;7.036;2022-12-18T00:18:07;7.67;;;5.70;;
15425;SDS011;7812;50.072;7.036;2022-12-18T00:20:36;10.00;;;6.77;;
15425;SDS011;7812;50.072;7.036;2022-12-18T00:23:03;12.23;;;7.07;;
15425;SDS011;7812;50.072;7.036;2022-12-18T00:25:32;9.93;;;6.30;;
15425;SDS011;7812;50.072;7.036;2022-12-18T00:27:59;8.90;;;6.10;;
15425;SDS011;7812;50.072;7.036;2022-12-18T00:30:25;9.97;;;6.27;;
15425;SDS011;7812;50.072;7.036;2022-12-18T00:32:51;10.57;;;6.73;;
15425;SDS011;7812;50.072;7.036;2022-12-18T00:35:17;11.97;;;6.17;;
15425;SDS011;7812;50.072;7.036;2022-12-18T00:37:43;10.77;;;6.00;;
15425;SDS011;7812;50.072;7.036;2022-12-18T00:40:10;8.57;;;6.13;;
15425;SDS011;7812;50.072;7.036;2022-12-18T00:42:36;12.67;;;7.13;;
15425;SDS011;7812;50.072;7.036;2022-12-18T00:45:20;10.60;;;6.47;;
15425;SDS011;7812;50.072;7.036;2022-12-18T00:47:49;10.93;;;6.17;;
15425;SDS011;7812;50.072;7.036;2022-12-18T00:50:15;8.67;;;6.13;;
15425;SDS011;7812;50.072;7.036;2022-12-18T00:52:41;11.57;;;6.50;;
15425;SDS011;7812;50.072;7.036;2022-12-18T00:55:07;10.70;;;7.23;;
15425;SDS011;7812;50.072;7.036;2022-12-18T00:57:35;9.13;;;6.07;;
15425;SDS011;7812;50.072;7.036;2022-12-18T01:00:01;8.80;;;6.50;;
15425;SDS011;7812;50.072;7.036;2022-12-18T01:02:29;10.57;;;6.57;;
15425;SDS011;7812;50.072;7.036;2022-12-18T01:04:54;9.13;;;6.67;;
15425;SDS011;7812;50.072;7.036;2022-12-18T01:07:21;10.93;;;6.80;;
15425;SDS011;7812;50.072;7.036;2022-12-18T01:09:47;10.20;;;6.90;;
15425;SDS011;7812;50.072;7.036;2022-12-18T01:12:13;11.30;;;6.50;;
15425;SDS011;7812;50.072;7.036;2022-12-18T01:14:39;8.90;;;6.60;;
15425;SDS011;7812;50.072;7.036;2022-12-18T01:17:04;10.13;;;7.20;;
15425;SDS011;7812;50.072;7.036;2022-12-18T01:19:30;8.73;;;6.10;;
15425;SDS011;7812;50.072;7.036;2022-12-18T01:21:56;8.63;;;6.37;;
15425;SDS011;7812;50.072;7.036;2022-12-18T01:24:22;12.53;;;6.00;;
15425;SDS011;7812;50.072;7.036;2022-12-18T01:26:48;9.27;;;6.53;;
15425;SDS011;7812;50.072;7.036;2022-12-18T01:29:14;9.20;;;6.27;;
15425;SDS011;7812;50.072;7.036;2022-12-18T01:31:39;10.73;;;6.67;;
15425;SDS011;7812;50.072;7.036;2022-12-18T01:34:05;10.90;;;6.30;;
15425;SDS011;7812;50.072;7.036;2022-12-18T01:36:32;9.70;;;6.47;;
15425;SDS011;7812;50.072;7.036;2022-12-18T01:39:01;8.53;;;5.90;;
15425;SDS011;7812;50.072;7.036;2022-12-18T01:41:32;12.47;;;6.57;;
15425;SDS011;7812;50.072;7.036;2022-12-18T01:49:46;8.97;;;6.53;;
15425;SDS011;7812;50.072;7.036;2022-12-18T01:52:13;12.23;;;7.30;;
15425;SDS011;7812;50.072;7.036;2022-12-18T01:54:39;9.63;;;6.13;;
15425;SDS011;7812;50.072;7.036;2022-12-18T01:57:05;8.90;;;6.40;;
15425;SDS011;7812;50.072;7.036;2022-12-18T01:59:32;11.20;;;7.43;;
15425;SDS011;7812;50.072;7.036;2022-12-18T02:02:00;10.33;;;6.10;;
15425;SDS011;7812;50.072;7.036;2022-12-18T02:04:27;10.47;;;6.67;;
15425;SDS011;7812;50.072;7.036;2022-12-18T02:09:47;9.13;;;6.07;;
15425;SDS011;7812;50.072;7.036;2022-12-18T02:12:17;9.93;;;6.30;;
15425;SDS011;7812;50.072;7.036;2022-12-18T02:14:45;12.20;;;6.87;;
15425;SDS011;7812;50.072;7.036;2022-12-18T02:17:21;11.20;;;6.50;;
15425;SDS011;7812;50.072;7.036;2022-12-18T02:27:54;9.13;;;6.43;;
15425;SDS011;7812;50.072;7.036;2022-12-18T02:30:24;8.90;;;5.77;;
15425;SDS011;7812;50.072;7.036;2022-12-18T02:32:52;9.20;;;6.27;;
15425;SDS011;7812;50.072;7.036;2022-12-18T02:35:23;10.10;;;6.73;;
15425;SDS011;7812;50.072;7.036;2022-12-18T02:37:50;9.67;;;6.50;;
15425;SDS011;7812;50.072;7.036;2022-12-18T02:40:19;10.83;;;6.77;;
15425;SDS011;7812;50.072;7.036;2022-12-18T02:42:48;8.63;;;5.53;;
15425;SDS011;7812;50.072;7.036;2022-12-18T02:45:14;9.03;;;6.37;;
15425;SDS011;7812;50.072;7.036;2022-12-18T02:47:40;8.63;;;6.07;;
15425;SDS011;7812;50.072;7.036;2022-12-18T02:50:28;8.03;;;6.40;;
15425;SDS011;7812;50.072;7.036;2022-12-18T02:53:33;11.40;;;6.47;;
15425;SDS011;7812;50.072;7.036;2022-12-18T03:09:02;8.70;;;5.63;;
15425;SDS011;7812;50.072;7.036;2022-12-18T03:11:34;9.00;;;6.10;;
15425;SDS011;7812;50.072;7.036;2022-12-18T03:14:24;8.67;;;6.30;;
15425;SDS011;7812;50.072;7.036;2022-12-18T03:16:52;10.17;;;6.00;;
15425;SDS011;7812;50.072;7.036;2022-12-18T03:19:22;7.97;;;6.00;;
15425;SDS011;7812;50.072;7.036;2022-12-18T03:21:53;8.17;;;5.70;;
15425;SDS011;7812;50.072;7.036;2022-12-18T03:24:21;8.73;;;5.97;;
15425;SDS011;7812;50.072;7.036;2022-12-18T03:26:53;9.97;;;6.03;;
15425;SDS011;7812;50.072;7.036;2022-12-18T03:29:22;8.30;;;5.23;;
15425;SDS011;7812;50.072;7.036;2022-12-18T03:31:53;8.47;;;5.70;;
15425;SDS011;7812;50.072;7.036;2022-12-18T03:34:23;8.13;;;5.83;;
15425;SDS011;7812;50.072;7.036;2022-12-18T03:36:54;9.77;;;6.27;;
15425;SDS011;7812;50.072;7.036;2022-12-18T03:39:19;9.87;;;6.73;;
15425;SDS011;7812;50.072;7.036;2022-12-18T03:44:31;7.73;;;6.03;;
15425;SDS011;7812;50.072;7.036;2022-12-18T03:47:07;8.07;;;5.40;;
15425;SDS011;7812;50.072;7.036;2022-12-18T03:52:24;12.40;;;6.53;;
15425;SDS011;7812;50.072;7.036;2022-12-18T03:55:01;8.87;;;6.13;;
15425;SDS011;7812;50.072;7.036;2022-12-18T03:57:28;8.90;;;5.90;;
15425;SDS011;7812;50.072;7.036;2022-12-18T03:59:58;8.27;;;5.77;;
15425;SDS011;7812;50.072;7.036;2022-12-18T04:02:28;9.37;;;5.93;;
15425;SDS011;7812;50.072;7.036;2022-12-18T04:04:58;7.67;;;5.60;;
15425;SDS011;7812;50.072;7.036;2022-12-18T04:07:26;7.80;;;5.43;;
15425;SDS011;7812;50.072;7.036;2022-12-18T04:09:53;10.80;;;6.23;;
15425;SDS011;7812;50.072;7.036;2022-12-18T04:12:23;8.90;;;6.63;;
15425;SDS011;7812;50.072;7.036;2022-12-18T04:14:54;8.70;;;6.20;;
15425;SDS011;7812;50.072;7.036;2022-12-18T04:17:20;8.07;;;5.73;;
15425;SDS011;7812;50.072;7.036;2022-12-18T04:19:46;6.70;;;5.50;;
15425;SDS011;7812;50.072;7.036;2022-12-18T04:22:12;9.63;;;6.17;;
15425;SDS011;7812;50.072;7.036;2022-12-18T04:24:37;8.30;;;6.10;;
15425;SDS011;7812;50.072;7.036;2022-12-18T04:27:04;8.57;;;6.20;;
15425;SDS011;7812;50.072;7.036;2022-12-18T04:29:30;9.40;;;6.57;;
15425;SDS011;7812;50.072;7.036;2022-12-18T04:31:56;9.50;;;5.47;;
15425;SDS011;7812;50.072;7.036;2022-12-18T04:34:22;8.57;;;5.57;;
15425;SDS011;7812;50.072;7.036;2022-12-18T04:36:47;9.30;;;6.30;;
15425;SDS011;7812;50.072;7.036;2022-12-18T04:39:13;7.83;;;5.50;;
15425;SDS011;7812;50.072;7.036;2022-12-18T04:41:42;9.27;;;5.73;;
15425;SDS011;7812;50.072;7.036;2022-12-18T04:44:08;9.33;;;6.27;;
15425;SDS011;7812;50.072;7.036;2022-12-18T04:46:33;10.60;;;6.17;;
15425;SDS011;7812;50.072;7.036;2022-12-18T04:48:59;11.93;;;6.53;;
15425;SDS011;7812;50.072;7.036;2022-12-18T04:51:25;9.23;;;5.83;;
15425;SDS011;7812;50.072;7.036;2022-12-18T04:53:50;9.23;;;5.90;;
15425;SDS011;7812;50.072;7.036;2022-12-18T04:56:16;8.37;;;5.53;;
15425;SDS011;7812;50.072;7.036;2022-12-18T04:58:43;9.00;;;5.70;;
15425;SDS011;7812;50.072;7.036;2022-12-18T05:01:09;9.00;;;6.17;;
15425;SDS011;7812;50.072;7.036;2022-12-18T05:03:37;9.53;;;6.00;;
15425;SDS011;7812;50.072;7.036;2022-12-18T05:06:03;8.97;;;6.17;;
15425;SDS011;7812;50.072;7.036;2022-12-18T05:08:30;10.93;;;6.33;;
15425;SDS011;7812;50.072;7.036;2022-12-18T05:11:02;10.60;;;6.13;;
15425;SDS011;7812;50.072;7.036;2022-12-18T05:13:37;11.77;;;7.33;;
15425;SDS011;7812;50.072;7.036;2022-12-18T05:16:03;10.13;;;6.10;;
15425;SDS011;7812;50.072;7.036;2022-12-18T05:18:30;9.47;;;5.60;;
15425;SDS011;7812;50.072;7.036;2022-12-18T05:20:56;10.63;;;6.00;;
15425;SDS011;7812;50.072;7.036;2022-12-18T05:23:22;8.97;;;6.57;;
15425;SDS011;7812;50.072;7.036;2022-12-18T05:25:53;12.80;;;6.50;;
15425;SDS011;7812;50.072;7.036;2022-12-18T05:28:21;9.60;;;6.40;;
15425;SDS011;7812;50.072;7.036;2022-12-18T05:30:51;12.73;;;8.40;;
15425;SDS011;7812;50.072;7.036;2022-12-18T05:33:18;10.00;;;6.67;;
15425;SDS011;7812;50.072;7.036;2022-12-18T05:35:51;8.33;;;5.63;;
15425;SDS011;7812;50.072;7.036;2022-12-18T05:38:22;8.53;;;6.10;;
15425;SDS011;7812;50.072;7.036;2022-12-18T05:40:49;10.10;;;6.40;;
15425;SDS011;7812;50.072;7.036;2022-12-18T05:43:16;9.13;;;6.20;;
15425;SDS011;7812;50.072;7.036;2022-12-18T05:45:42;12.63;;;8.77;;
15425;SDS011;7812;50.072;7.036;2022-12-18T05:48:08;10.17;;;7.00;;
15425;SDS011;7812;50.072;7.036;2022-12-18T05:50:38;8.57;;;5.97;;
15425;SDS011;7812;50.072;7.036;2022-12-18T05:53:05;8.67;;;6.10;;
15425;SDS011;7812;50.072;7.036;2022-12-18T05:55:37;6.87;;;5.50;;
15425;SDS011;7812;50.072;7.036;2022-12-18T05:58:05;7.57;;;6.07;;
15425;SDS011;7812;50.072;7.036;2022-12-18T06:00:33;10.37;;;6.20;;
15425;SDS011;7812;50.072;7.036;2022-12-18T06:03:00;9.90;;;6.40;;
15425;SDS011;7812;50.072;7.036;2022-12-18T06:05:26;10.53;;;7.53;;
15425;SDS011;7812;50.072;7.036;2022-12-18T06:07:52;7.60;;;6.13;;
15425;SDS011;7812;50.072;7.036;2022-12-18T06:10:18;9.47;;;6.37;;
15425;SDS011;7812;50.072;7.036;2022-12-18T06:12:44;10.00;;;6.53;;
15425;SDS011;7812;50.072;7.036;2022-12-18T06:15:10;10.00;;;6.63;;
15425;SDS011;7812;50.072;7.036;2022-12-18T06:17:36;9.73;;;5.93;;
15425;SDS011;7812;50.072;7.036;2022-12-18T06:20:02;12.13;;;6.77;;
15425;SDS011;7812;50.072;7.036;2022-12-18T06:22:31;7.57;;;5.93;;
15425;SDS011;7812;50.072;7.036;2022-12-18T06:24:57;8.10;;;5.70;;
15425;SDS011;7812;50.072;7.036;2022-12-18T06:27:24;11.77;;;6.43;;
15425;SDS011;7812;50.072;7.036;2022-12-18T06:29:50;9.40;;;6.27;;
15425;SDS011;7812;50.072;7.036;2022-12-18T06:32:15;9.10;;;6.23;;
15425;SDS011;7812;50.072;7.036;2022-12-18T06:34:41;9.10;;;5.80;;
15425;SDS011;7812;50.072;7.036;2022-12-18T06:37:07;6.83;;;5.53;;
15425;SDS011;7812;50.072;7.036;2022-12-18T06:39:33;8.50;;;5.93;;
15425;SDS011;7812;50.072;7.036;2022-12-18T06:41:58;9.43;;;6.30;;
15425;SDS011;7812;50.072;7.036;2022-12-18T06:44:24;26.97;;;15.33;;
15425;SDS011;7812;50.072;7.036;2022-12-18T06:46:50;11.00;;;7.70;;
15425;SDS011;7812;50.072;7.036;2022-12-18T06:49:15;10.70;;;7.03;;
15425;SDS011;7812;50.072;7.036;2022-12-18T06:51:41;10.23;;;7.17;;
15425;SDS011;7812;50.072;7.036;2022-12-18T06:54:07;9.10;;;6.37;;
15425;SDS011;7812;50.072;7.036;2022-12-18T06:56:33;11.27;;;6.90;;
15425;SDS011;7812;50.072;7.036;2022-12-18T06:58:59;11.97;;;7.97;;
15425;SDS011;7812;50.072;7.036;2022-12-18T07:01:25;22.17;;;12.20;;
15425;SDS011;7812;50.072;7.036;2022-12-18T07:03:52;8.57;;;6.23;;
15425;SDS011;7812;50.072;7.036;2022-12-18T07:06:20;10.47;;;6.20;;
15425;SDS011;7812;50.072;7.036;2022-12-18T07:08:47;11.33;;;6.00;;
15425;SDS011;7812;50.072;7.036;2022-12-18T07:11:14;11.33;;;6.80;;
15425;SDS011;7812;50.072;7.036;2022-12-18T07:13:41;8.57;;;5.80;;
15425;SDS011;7812;50.072;7.036;2022-12-18T07:16:19;7.67;;;5.70;;
15425;SDS011;7812;50.072;7.036;2022-12-18T07:18:46;25.40;;;13.10;;
15425;SDS011;7812;50.072;7.036;2022-12-18T07:21:14;12.67;;;7.87;;
15425;SDS011;7812;50.072;7.036;2022-12-18T07:23:42;10.43;;;6.07;;
15425;SDS011;7812;50.072;7.036;2022-12-18T07:26:09;39.50;;;19.67;;
15425;SDS011;7812;50.072;7.036;2022-12-18T07:28:37;14.83;;;10.20;;
15425;SDS011;7812;50.072;7.036;2022-12-18T07:31:05;13.63;;;7.73;;
15425;SDS011;7812;50.072;7.036;2022-12-18T07:33:32;9.70;;;6.43;;
15425;SDS011;7812;50.072;7.036;2022-12-18T07:36:02;9.50;;;6.23;;
15425;SDS011;7812;50.072;7.036;2022-12-18T07:38:30;8.33;;;5.80;;
15425;SDS011;7812;50.072;7.036;2022-12-18T07:41:00;9.83;;;6.60;;
15425;SDS011;7812;50.072;7.036;2022-12-18T07:43:27;11.60;;;8.70;;
15425;SDS011;7812;50.072;7.036;2022-12-18T07:45:53;10.63;;;7.27;;
15425;SDS011;7812;50.072;7.036;2022-12-18T07:48:19;8.97;;;6.13;;
15425;SDS011;7812;50.072;7.036;2022-12-18T07:50:44;10.43;;;6.53;;
15425;SDS011;7812;50.072;7.036;2022-12-18T07:53:10;9.67;;;6.83;;
15425;SDS011;7812;50.072;7.036;2022-12-18T07:55:36;13.40;;;9.57;;
15425;SDS011;7812;50.072;7.036;2022-12-18T07:58:02;10.70;;;7.23;;
15425;SDS011;7812;50.072;7.036;2022-12-18T08:00:29;12.73;;;6.90;;
15425;SDS011;7812;50.072;7.036;2022-12-18T08:02:55;9.80;;;6.80;;
15425;SDS011;7812;50.072;7.036;2022-12-18T08:05:22;13.13;;;6.97;;
15425;SDS011;7812;50.072;7.036;2022-12-18T08:07:48;8.43;;;5.77;;
15425;SDS011;7812;50.072;7.036;2022-12-18T08:10:14;8.83;;;6.00;;
15425;SDS011;7812;50.072;7.036;2022-12-18T08:12:40;9.83;;;7.40;;
15425;SDS011;7812;50.072;7.036;2022-12-18T08:15:06;10.43;;;6.80;;
15425;SDS011;7812;50.072;7.036;2022-12-18T08:17:32;9.63;;;6.37;;
15425;SDS011;7812;50.072;7.036;2022-12-18T08:19:58;10.70;;;7.33;;
15425;SDS011;7812;50.072;7.036;2022-12-18T08:22:23;11.63;;;7.10;;
15425;SDS011;7812;50.072;7.036;2022-12-18T08:24:49;10.37;;;6.37;;
15425;SDS011;7812;50.072;7.036;2022-12-18T08:27:15;8.60;;;6.03;;
15425;SDS011;7812;50.072;7.036;2022-12-18T08:29:41;11.70;;;7.67;;
15425;SDS011;7812;50.072;7.036;2022-12-18T08:32:07;10.87;;;7.13;;
15425;SDS011;7812;50.072;7.036;2022-12-18T08:34:33;13.73;;;7.97;;
15425;SDS011;7812;50.072;7.036;2022-12-18T08:36:58;9.27;;;6.53;;
15425;SDS011;7812;50.072;7.036;2022-12-18T08:39:24;10.93;;;6.53;;
15425;SDS011;7812;50.072;7.036;2022-12-18T08:41:51;11.97;;;7.50;;
15425;SDS011;7812;50.072;7.036;2022-12-18T08:44:35;20.10;;;13.33;;
15425;SDS011;7812;50.072;7.036;2022-12-18T08:47:04;12.50;;;7.50;;
15425;SDS011;7812;50.072;7.036;2022-12-18T08:49:31;9.63;;;6.50;;
15425;SDS011;7812;50.072;7.036;2022-12-18T08:51:57;10.47;;;6.83;;
15425;SDS011;7812;50.072;7.036;2022-12-18T08:54:23;12.60;;;8.23;;
15425;SDS011;7812;50.072;7.036;2022-12-18T08:56:49;9.67;;;6.13;;
15425;SDS011;7812;50.072;7.036;2022-12-18T08:59:18;9.13;;;6.30;;
15425;SDS011;7812;50.072;7.036;2022-12-18T09:01:44;8.47;;;5.73;;
15425;SDS011;7812;50.072;7.036;2022-12-18T09:04:11;9.70;;;6.63;;
15425;SDS011;7812;50.072;7.036;2022-12-18T09:06:37;11.23;;;6.57;;
15425;SDS011;7812;50.072;7.036;2022-12-18T09:09:10;9.87;;;6.23;;
15425;SDS011;7812;50.072;7.036;2022-12-18T09:11:36;9.37;;;6.30;;
15425;SDS011;7812;50.072;7.036;2022-12-18T09:14:02;9.87;;;6.03;;
15425;SDS011;7812;50.072;7.036;2022-12-18T09:16:28;9.97;;;6.80;;
15425;SDS011;7812;50.072;7.036;2022-12-18T09:18:55;10.60;;;6.83;;
15425;SDS011;7812;50.072;7.036;2022-12-18T09:21:24;10.43;;;7.07;;
15425;SDS011;7812;50.072;7.036;2022-12-18T09:23:53;9.43;;;6.53;;
15425;SDS011;7812;50.072;7.036;2022-12-18T09:26:20;11.80;;;7.57;;
15425;SDS011;7812;50.072;7.036;2022-12-18T09:28:47;11.13;;;7.83;;
15425;SDS011;7812;50.072;7.036;2022-12-18T09:31:15;8.10;;;6.40;;
15425;SDS011;7812;50.072;7.036;2022-12-18T09:33:42;8.13;;;6.17;;
15425;SDS011;7812;50.072;7.036;2022-12-18T09:36:11;8.83;;;5.93;;
15425;SDS011;7812;50.072;7.036;2022-12-18T09:38:39;8.27;;;6.00;;
15425;SDS011;7812;50.072;7.036;2022-12-18T09:41:17;9.77;;;6.27;;
15425;SDS011;7812;50.072;7.036;2022-12-18T09:43:58;8.40;;;6.10;;
15425;SDS011;7812;50.072;7.036;2022-12-18T09:46:29;7.40;;;6.03;;
15425;SDS011;7812;50.072;7.036;2022-12-18T09:49:00;8.53;;;6.40;;
15425;SDS011;7812;50.072;7.036;2022-12-18T09:51:30;9.30;;;6.93;;
15425;SDS011;7812;50.072;7.036;2022-12-18T09:54:06;11.60;;;7.97;;
15425;SDS011;7812;50.072;7.036;2022-12-18T09:56:45;16.67;;;13.50;;
15425;SDS011;7812;50.072;7.036;2022-12-18T09:59:17;13.57;;;10.00;;
15425;SDS011;7812;50.072;7.036;2022-12-18T10:01:56;11.80;;;8.63;;
15425;SDS011;7812;50.072;7.036;2022-12-18T10:04:23;11.93;;;8.27;;
15425;SDS011;7812;50.072;7.036;2022-12-18T10:06:58;9.40;;;6.97;;
15425;SDS011;7812;50.072;7.036;2022-12-18T10:09:32;9.43;;;6.53;;
15425;SDS011;7812;50.072;7.036;2022-12-18T10:12:14;9.90;;;7.30;;
15425;SDS011;7812;50.072;7.036;2022-12-18T10:20:07;10.10;;;7.77;;
15425;SDS011;7812;50.072;7.036;2022-12-18T10:27:30;12.83;;;10.00;;
15425;SDS011;7812;50.072;7.036;2022-12-18T10:29:56;12.73;;;9.53;;
15425;SDS011;7812;50.072;7.036;2022-12-18T10:32:27;16.37;;;12.20;;
15425;SDS011;7812;50.072;7.036;2022-12-18T10:34:55;14.97;;;10.97;;
15425;SDS011;7812;50.072;7.036;2022-12-18T10:37:23;11.63;;;9.30;;
15425;SDS011;7812;50.072;7.036;2022-12-18T10:42:37;10.77;;;8.57;;
15425;SDS011;7812;50.072;7.036;2022-12-18T10:45:07;15.73;;;12.23;;
15425;SDS011;7812;50.072;7.036;2022-12-18T10:47:47;15.03;;;10.77;;
15425;SDS011;7812;50.072;7.036;2022-12-18T10:53:01;17.37;;;12.63;;
15425;SDS011;7812;50.072;7.036;2022-12-18T10:55:31;16.17;;;12.07;;
15425;SDS011;7812;50.072;7.036;2022-12-18T11:01:12;19.13;;;13.57;;
15425;SDS011;7812;50.072;7.036;2022-12-18T11:08:46;19.07;;;13.93;;
15425;SDS011;7812;50.072;7.036;2022-12-18T11:11:26;18.03;;;12.30;;
15425;SDS011;7812;50.072;7.036;2022-12-18T11:16:24;18.87;;;13.70;;
15425;SDS011;7812;50.072;7.036;2022-12-18T11:18:51;19.13;;;14.00;;
15425;SDS011;7812;50.072;7.036;2022-12-18T11:21:17;22.23;;;14.60;;
15425;SDS011;7812;50.072;7.036;2022-12-18T11:26:12;20.63;;;14.10;;
15425;SDS011;7812;50.072;7.036;2022-12-18T11:31:34;37.77;;;26.10;;
15425;SDS011;7812;50.072;7.036;2022-12-18T11:36:54;21.57;;;14.17;;
15425;SDS011;7812;50.072;7.036;2022-12-18T11:39:41;23.00;;;14.67;;
15425;SDS011;7812;50.072;7.036;2022-12-18T11:44:50;20.17;;;14.00;;
15425;SDS011;7812;50.072;7.036;2022-12-18T11:50:14;22.73;;;14.53;;
15425;SDS011;7812;50.072;7.036;2022-12-18T11:52:44;21.33;;;13.33;;
15425;SDS011;7812;50.072;7.036;2022-12-18T11:55:11;18.70;;;13.27;;
15425;SDS011;7812;50.072;7.036;2022-12-18T11:57:52;21.30;;;13.80;;
15425;SDS011;7812;50.072;7.036;2022-12-18T12:00:28;19.20;;;13.70;;
15425;SDS011;7812;50.072;7.036;2022-12-18T12:05:56;22.13;;;14.63;;
15425;SDS011;7812;50.072;7.036;2022-12-18T12:11:55;20.40;;;14.17;;
15425;SDS011;7812;50.072;7.036;2022-12-18T12:25:07;23.47;;;15.07;;
15425;SDS011;7812;50.072;7.036;2022-12-18T12:38:46;22.93;;;14.37;;
15425;SDS011;7812;50.072;7.036;2022-12-18T12:41:17;24.87;;;16.77;;
15425;SDS011;7812;50.072;7.036;2022-12-18T12:44:16;22.63;;;14.83;;
15425;SDS011;7812;50.072;7.036;2022-12-18T12:46:49;23.27;;;14.63;;
15425;SDS011;7812;50.072;7.036;2022-12-18T12:49:17;23.57;;;15.23;;
15425;SDS011;7812;50.072;7.036;2022-12-18T12:52:03;23.20;;;14.27;;
15425;SDS011;7812;50.072;7.036;2022-12-18T12:54:32;23.03;;;15.00;;
15425;SDS011;7812;50.072;7.036;2022-12-18T12:57:06;24.23;;;14.10;;
15425;SDS011;7812;50.072;7.036;2022-12-18T13:03:23;23.40;;;15.70;;
15425;SDS011;7812;50.072;7.036;2022-12-18T13:08:23;25.63;;;15.40;;
15425;SDS011;7812;50.072;7.036;2022-12-18T13:10:57;24.07;;;15.17;;
15425;SDS011;7812;50.072;7.036;2022-12-18T13:13:49;25.40;;;15.00;;
15425;SDS011;7812;50.072;7.036;2022-12-18T13:16:20;23.37;;;14.70;;
15425;SDS011;7812;50.072;7.036;2022-12-18T13:18:51;22.60;;;14.87;;
15425;SDS011;7812;50.072;7.036;2022-12-18T13:23:52;22.73;;;14.77;;
15425;SDS011;7812;50.072;7.036;2022-12-18T13:31:11;26.43;;;16.00;;
15425;SDS011;7812;50.072;7.036;2022-12-18T13:38:47;25.50;;;16.73;;
15425;SDS011;7812;50.072;7.036;2022-12-18T13:41:36;24.00;;;15.60;;
15425;SDS011;7812;50.072;7.036;2022-12-18T13:47:05;27.57;;;17.03;;
15425;SDS011;7812;50.072;7.036;2022-12-18T13:50:18;23.17;;;15.50;;
15425;SDS011;7812;50.072;7.036;2022-12-18T13:52:50;26.27;;;16.30;;
15425;SDS011;7812;50.072;7.036;2022-12-18T13:55:19;23.50;;;15.60;;
15425;SDS011;7812;50.072;7.036;2022-12-18T13:57:45;23.03;;;15.77;;
15425;SDS011;7812;50.072;7.036;2022-12-18T14:02:49;27.40;;;17.03;;
15425;SDS011;7812;50.072;7.036;2022-12-18T14:05:26;26.33;;;16.90;;
15425;SDS011;7812;50.072;7.036;2022-12-18T14:08:01;28.33;;;17.67;;
15425;SDS011;7812;50.072;7.036;2022-12-18T14:10:33;29.10;;;17.73;;
15425;SDS011;7812;50.072;7.036;2022-12-18T14:13:03;26.77;;;16.53;;
15425;SDS011;7812;50.072;7.036;2022-12-18T14:15:35;25.20;;;16.33;;
15425;SDS011;7812;50.072;7.036;2022-12-18T14:20:47;24.90;;;16.43;;
15425;SDS011;7812;50.072;7.036;2022-12-18T14:26:03;28.73;;;16.43;;
15425;SDS011;7812;50.072;7.036;2022-12-18T14:28:46;29.63;;;17.53;;
15425;SDS011;7812;50.072;7.036;2022-12-18T14:31:18;29.50;;;17.83;;
15425;SDS011;7812;50.072;7.036;2022-12-18T14:33:49;24.80;;;16.97;;
15425;SDS011;7812;50.072;7.036;2022-12-18T14:36:19;32.00;;;20.03;;
15425;SDS011;7812;50.072;7.036;2022-12-18T14:38:56;24.87;;;16.73;;
15425;SDS011;7812;50.072;7.036;2022-12-18T14:41:23;29.00;;;17.27;;
15425;SDS011;7812;50.072;7.036;2022-12-18T14:43:51;27.67;;;17.47;;
15425;SDS011;7812;50.072;7.036;2022-12-18T14:48:57;26.50;;;16.93;;
15425;SDS011;7812;50.072;7.036;2022-12-18T14:51:28;27.03;;;16.43;;
15425;SDS011;7812;50.072;7.036;2022-12-18T14:56:27;27.57;;;16.17;;
15425;SDS011;7812;50.072;7.036;2022-12-18T14:59:13;27.77;;;18.67;;
15425;SDS011;7812;50.072;7.036;2022-12-18T15:01:46;27.73;;;18.23;;
15425;SDS011;7812;50.072;7.036;2022-12-18T15:04:26;25.67;;;16.43;;
15425;SDS011;7812;50.072;7.036;2022-12-18T15:07:07;33.77;;;19.60;;
15425;SDS011;7812;50.072;7.036;2022-12-18T15:09:34;26.83;;;16.30;;
15425;SDS011;7812;50.072;7.036;2022-12-18T15:12:00;25.97;;;16.47;;
15425;SDS011;7812;50.072;7.036;2022-12-18T15:16:55;28.40;;;17.97;;
15425;SDS011;7812;50.072;7.036;2022-12-18T15:19:22;27.80;;;18.80;;
15425;SDS011;7812;50.072;7.036;2022-12-18T15:21:59;34.47;;;17.80;;
15425;SDS011;7812;50.072;7.036;2022-12-18T15:24:27;29.43;;;18.93;;
15425;SDS011;7812;50.072;7.036;2022-12-18T15:26:55;29.23;;;17.87;;
15425;SDS011;7812;50.072;7.036;2022-12-18T15:29:24;28.73;;;18.30;;
15425;SDS011;7812;50.072;7.036;2022-12-18T15:32:03;31.13;;;18.67;;
15425;SDS011;7812;50.072;7.036;2022-12-18T15:34:31;29.17;;;17.77;;
15425;SDS011;7812;50.072;7.036;2022-12-18T15:36:59;33.73;;;19.50;;
15425;SDS011;7812;50.072;7.036;2022-12-18T15:39:25;29.67;;;18.87;;
15425;SDS011;7812;50.072;7.036;2022-12-18T15:41:51;31.20;;;19.43;;
15425;SDS011;7812;50.072;7.036;2022-12-18T15:44:35;31.60;;;19.00;;
15425;SDS011;7812;50.072;7.036;2022-12-18T15:47:01;33.63;;;19.63;;
15425;SDS011;7812;50.072;7.036;2022-12-18T15:49:27;31.20;;;19.00;;
15425;SDS011;7812;50.072;7.036;2022-12-18T15:51:54;28.63;;;18.73;;
15425;SDS011;7812;50.072;7.036;2022-12-18T15:54:22;29.37;;;17.93;;
15425;SDS011;7812;50.072;7.036;2022-12-18T15:57:11;31.47;;;18.93;;
15425;SDS011;7812;50.072;7.036;2022-12-18T15:59:50;33.60;;;19.93;;
15425;SDS011;7812;50.072;7.036;2022-12-18T16:02:21;32.40;;;19.60;;
15425;SDS011;7812;50.072;7.036;2022-12-18T16:04:47;29.37;;;18.00;;
15425;SDS011;7812;50.072;7.036;2022-12-18T16:07:14;32.90;;;20.00;;
15425;SDS011;7812;50.072;7.036;2022-12-18T16:09:40;35.47;;;20.13;;
15425;SDS011;7812;50.072;7.036;2022-12-18T16:12:14;30.40;;;19.70;;
15425;SDS011;7812;50.072;7.036;2022-12-18T16:14:50;36.67;;;22.00;;
15425;SDS011;7812;50.072;7.036;2022-12-18T16:17:16;33.10;;;20.30;;
15425;SDS011;7812;50.072;7.036;2022-12-18T16:19:42;33.03;;;20.83;;
15425;SDS011;7812;50.072;7.036;2022-12-18T16:22:15;31.73;;;20.10;;
15425;SDS011;7812;50.072;7.036;2022-12-18T16:24:47;36.97;;;23.33;;
15425;SDS011;7812;50.072;7.036;2022-12-18T16:27:13;39.03;;;21.60;;
15425;SDS011;7812;50.072;7.036;2022-12-18T16:29:39;32.80;;;21.23;;
15425;SDS011;7812;50.072;7.036;2022-12-18T16:32:05;31.53;;;20.33;;
15425;SDS011;7812;50.072;7.036;2022-12-18T16:34:31;31.50;;;20.03;;
15425;SDS011;7812;50.072;7.036;2022-12-18T16:37:03;30.17;;;19.07;;
15425;SDS011;7812;50.072;7.036;2022-12-18T16:39:31;32.40;;;20.27;;
15425;SDS011;7812;50.072;7.036;2022-12-18T16:41:59;28.13;;;17.27;;
15425;SDS011;7812;50.072;7.036;2022-12-18T16:44:25;30.53;;;18.77;;
15425;SDS011;7812;50.072;7.036;2022-12-18T16:46:51;31.87;;;19.17;;
15425;SDS011;7812;50.072;7.036;2022-12-18T16:49:17;30.03;;;19.33;;
15425;SDS011;7812;50.072;7.036;2022-12-18T16:51:44;32.03;;;19.40;;
15425;SDS011;7812;50.072;7.036;2022-12-18T16:54:11;33.03;;;20.13;;
15425;SDS011;7812;50.072;7.036;2022-12-18T16:56:37;29.53;;;19.03;;
15425;SDS011;7812;50.072;7.036;2022-12-18T16:59:03;33.03;;;19.57;;
15425;SDS011;7812;50.072;7.036;2022-12-18T17:01:30;30.47;;;18.77;;
15425;SDS011;7812;50.072;7.036;2022-12-18T17:04:00;30.57;;;19.90;;
15425;SDS011;7812;50.072;7.036;2022-12-18T17:06:28;33.00;;;20.30;;
15425;SDS011;7812;50.072;7.036;2022-12-18T17:09:03;35.30;;;21.50;;
15425;SDS011;7812;50.072;7.036;2022-12-18T17:11:31;31.53;;;19.23;;
15425;SDS011;7812;50.072;7.036;2022-12-18T17:13:58;33.03;;;19.77;;
15425;SDS011;7812;50.072;7.036;2022-12-18T17:16:29;35.97;;;20.73;;
15425;SDS011;7812;50.072;7.036;2022-12-18T17:18:55;33.07;;;20.07;;
15425;SDS011;7812;50.072;7.036;2022-12-18T17:21:21;33.77;;;20.67;;